createdAt,value
2023-05-17T00:00:55.421Z,10.10
2023-05-17T00:03:22.099Z,10.10
2023-05-17T00:05:48.995Z,10.20
2023-05-17T00:08:15.786Z,10.10
2023-05-17T00:10:43.255Z,10.10
2023-05-17T00:13:09.907Z,10.10
2023-05-17T00:15:36.752Z,10.10
2023-05-17T00:18:03.731Z,10.10
2023-05-17T00:20:30.625Z,10.10
2023-05-17T00:22:57.319Z,10.10
2023-05-17T00:25:24.075Z,10.10
2023-05-17T00:27:50.713Z,10.10
2023-05-17T00:30:17.380Z,10.00
2023-05-17T00:32:46.760Z,10.00
2023-05-17T00:35:13.886Z,10.10
2023-05-17T00:37:40.590Z,10.00
2023-05-17T00:40:07.942Z,10.00
2023-05-17T00:42:34.796Z,9.90
2023-05-17T00:45:01.523Z,9.80
2023-05-17T00:47:28.179Z,9.90
2023-05-17T00:49:55.090Z,9.90
2023-05-17T00:52:21.781Z,9.90
2023-05-17T00:54:48.646Z,9.90
2023-05-17T00:57:16.148Z,9.80
2023-05-17T00:59:44.581Z,9.80
2023-05-17T01:02:12.523Z,9.90
2023-05-17T01:04:39.262Z,9.90
2023-05-17T01:07:06.746Z,9.90
2023-05-17T01:09:33.822Z,9.90
2023-05-17T01:12:21.821Z,9.90
2023-05-17T01:14:54.326Z,9.90
2023-05-17T01:18:02.985Z,10.00
2023-05-17T01:20:37.406Z,9.80
2023-05-17T01:23:14.969Z,9.80
2023-05-17T01:26:19.467Z,9.80
2023-05-17T01:28:48.463Z,9.80
2023-05-17T01:31:15.685Z,9.80
2023-05-17T01:33:42.574Z,9.80
2023-05-17T01:36:09.774Z,9.90
2023-05-17T01:38:36.582Z,9.90
2023-05-17T01:41:16.104Z,9.80
2023-05-17T01:43:55.543Z,9.80
2023-05-17T01:46:27.371Z,9.80
2023-05-17T01:49:16.929Z,9.90
2023-05-17T01:51:51.161Z,9.80
2023-05-17T01:54:23.266Z,9.70
2023-05-17T01:56:58.717Z,9.80
2023-05-17T01:59:26.793Z,9.80
2023-05-17T02:02:06.262Z,9.80
2023-05-17T02:04:33.347Z,9.80
2023-05-17T02:06:59.987Z,9.80
2023-05-17T02:09:26.640Z,9.80
2023-05-17T02:11:53.286Z,9.80
2023-05-17T02:14:19.903Z,9.80
2023-05-17T02:16:46.624Z,9.80
2023-05-17T02:19:14.183Z,9.80
2023-05-17T02:21:41.474Z,9.80
2023-05-17T02:24:08.169Z,9.80
2023-05-17T02:26:34.853Z,9.80
2023-05-17T02:29:01.592Z,9.80
2023-05-17T02:31:28.574Z,9.80
2023-05-17T02:33:55.491Z,9.80
2023-05-17T02:36:22.250Z,9.80
2023-05-17T02:38:48.937Z,9.80
2023-05-17T02:41:15.611Z,9.80
2023-05-17T02:43:42.280Z,9.80
2023-05-17T02:46:08.916Z,9.80
2023-05-17T02:48:35.674Z,9.80
2023-05-17T02:51:02.289Z,9.70
2023-05-17T02:53:28.936Z,9.70
2023-05-17T02:55:58.092Z,9.60
2023-05-17T02:58:25.707Z,9.70
2023-05-17T03:00:52.540Z,9.70
2023-05-17T03:03:19.469Z,9.70
2023-05-17T03:05:46.262Z,9.70
2023-05-17T03:08:12.959Z,9.70
2023-05-17T03:10:39.577Z,9.70
2023-05-17T03:13:06.292Z,9.70
2023-05-17T03:15:32.934Z,9.60
2023-05-17T03:17:59.979Z,9.60
2023-05-17T03:20:26.815Z,9.50
2023-05-17T03:22:53.464Z,9.50
2023-05-17T03:25:20.256Z,9.50
2023-05-17T03:27:46.949Z,9.40
2023-05-17T03:30:13.825Z,9.50
2023-05-17T03:32:40.892Z,9.40
2023-05-17T03:35:08.370Z,9.30
2023-05-17T03:37:35.203Z,9.30
2023-05-17T03:40:01.935Z,9.30
2023-05-17T03:42:28.631Z,9.30
2023-05-17T03:44:55.304Z,9.30
2023-05-17T03:47:24.732Z,9.30
2023-05-17T03:49:51.412Z,9.30
2023-05-17T03:52:18.086Z,9.30
2023-05-17T03:54:46.840Z,9.30
2023-05-17T03:57:14.709Z,9.40
2023-05-17T03:59:41.360Z,9.30
2023-05-17T04:02:08.011Z,9.30
2023-05-17T04:04:34.713Z,9.30
2023-05-17T04:07:01.367Z,9.20
2023-05-17T04:09:28.139Z,9.20
2023-05-17T04:11:54.861Z,9.30
2023-05-17T04:14:22.346Z,9.10
2023-05-17T04:16:49.121Z,9.10
2023-05-17T04:19:15.886Z,9.10
2023-05-17T04:21:42.639Z,9.10
2023-05-17T04:24:09.594Z,9.10
2023-05-17T04:26:36.302Z,9.00
2023-05-17T04:29:02.955Z,9.10
2023-05-17T04:31:31.970Z,9.10
2023-05-17T04:33:58.785Z,9.10
2023-05-17T04:36:25.545Z,9.00
2023-05-17T04:38:52.409Z,9.10
2023-05-17T04:41:19.071Z,9.10
2023-05-17T04:43:45.690Z,9.10
2023-05-17T04:46:12.503Z,9.10
2023-05-17T04:48:41.646Z,9.10
2023-05-17T04:51:08.364Z,9.20
2023-05-17T04:53:35.069Z,9.20
2023-05-17T04:56:04.011Z,9.20
2023-05-17T04:58:31.925Z,9.10
2023-05-17T05:00:58.648Z,9.20
2023-05-17T05:03:26.444Z,9.20
2023-05-17T05:05:53.386Z,9.20
2023-05-17T05:08:20.024Z,9.20
2023-05-17T05:10:46.655Z,9.20
2023-05-17T05:13:13.482Z,9.30
2023-05-17T05:15:40.180Z,9.30
2023-05-17T05:18:07.184Z,9.40
2023-05-17T05:20:34.111Z,9.50
2023-05-17T05:23:03.598Z,9.50
2023-05-17T05:25:31.863Z,9.50
2023-05-17T05:27:58.689Z,9.50
2023-05-17T05:30:25.502Z,9.50
2023-05-17T05:32:52.358Z,9.50
2023-05-17T05:35:19.501Z,9.50
2023-05-17T05:37:46.224Z,9.50
2023-05-17T05:40:13.642Z,9.60
2023-05-17T05:42:40.351Z,9.70
2023-05-17T05:45:08.394Z,9.80
2023-05-17T05:47:35.512Z,9.90
2023-05-17T05:50:02.506Z,9.80
2023-05-17T05:52:29.152Z,9.90
2023-05-17T05:54:55.909Z,10.00
2023-05-17T05:57:22.537Z,10.10
2023-05-17T05:59:49.250Z,10.10
2023-05-17T06:02:17.259Z,10.30
2023-05-17T06:04:45.584Z,10.40
2023-05-17T06:07:13.642Z,10.40
2023-05-17T06:09:40.849Z,10.30
2023-05-17T06:12:07.555Z,10.30
2023-05-17T06:14:34.434Z,10.30
2023-05-17T06:17:01.088Z,10.30
2023-05-17T06:19:27.911Z,10.20
2023-05-17T06:21:54.593Z,10.30
2023-05-17T06:24:21.286Z,10.20
2023-05-17T06:26:48.462Z,10.40
2023-05-17T06:29:15.131Z,10.40
2023-05-17T06:31:41.821Z,10.30
2023-05-17T06:34:08.493Z,10.30
2023-05-17T06:36:36.650Z,10.30
2023-05-17T06:39:05.097Z,10.10
2023-05-17T06:41:31.932Z,10.20
2023-05-17T06:43:58.762Z,10.30
2023-05-17T06:46:25.524Z,10.10
2023-05-17T06:48:52.380Z,10.10
2023-05-17T06:51:19.190Z,10.20
2023-05-17T06:53:45.963Z,10.30
2023-05-17T06:56:12.707Z,10.00
2023-05-17T06:58:39.383Z,10.10
2023-05-17T07:01:06.093Z,10.30
2023-05-17T07:03:33.025Z,10.40
2023-05-17T07:05:59.754Z,10.50
2023-05-17T07:08:26.450Z,10.40
2023-05-17T07:10:53.382Z,10.50
2023-05-17T07:13:20.849Z,10.30
2023-05-17T07:15:47.579Z,10.30
2023-05-17T07:18:14.415Z,10.40
2023-05-17T07:20:41.150Z,10.50
2023-05-17T07:23:07.873Z,10.50
2023-05-17T07:25:38.539Z,10.60
2023-05-17T07:28:05.367Z,10.60
2023-05-17T07:30:32.166Z,10.50
2023-05-17T07:32:58.859Z,10.40
2023-05-17T07:35:25.661Z,10.20
2023-05-17T07:37:52.352Z,10.20
2023-05-17T07:40:19.112Z,10.30
2023-05-17T07:42:45.734Z,10.30
2023-05-17T07:45:12.371Z,10.30
2023-05-17T07:47:39.163Z,10.50
2023-05-17T07:50:06.460Z,10.60
2023-05-17T07:52:33.231Z,10.50
2023-05-17T07:54:59.995Z,10.30
2023-05-17T07:57:27.324Z,10.40
2023-05-17T07:59:54.111Z,10.50
2023-05-17T08:02:23.569Z,10.70
2023-05-17T08:04:50.341Z,10.80
2023-05-17T08:07:17.199Z,10.70
2023-05-17T08:09:45.302Z,10.60
2023-05-17T08:12:12.015Z,10.50
2023-05-17T08:14:40.078Z,10.70
2023-05-17T08:17:06.798Z,10.50
2023-05-17T08:19:33.669Z,10.60
2023-05-17T08:22:00.370Z,10.70
2023-05-17T08:24:26.994Z,10.70
2023-05-17T08:26:53.704Z,10.90
2023-05-17T08:29:20.549Z,10.90
2023-05-17T08:31:47.166Z,10.50
2023-05-17T08:34:13.863Z,10.50
2023-05-17T08:36:40.764Z,10.40
2023-05-17T08:39:08.520Z,10.40
2023-05-17T08:41:38.512Z,10.50
2023-05-17T08:44:06.291Z,10.80
2023-05-17T08:46:34.940Z,10.90
2023-05-17T08:49:04.026Z,10.90
2023-05-17T08:51:32.520Z,11.20
2023-05-17T08:53:59.411Z,11.30
2023-05-17T08:56:28.223Z,11.30
2023-05-17T08:58:58.860Z,11.40
2023-05-17T09:01:27.944Z,11.30
2023-05-17T09:03:55.774Z,11.40
2023-05-17T09:06:23.818Z,11.30
2023-05-17T09:08:55.049Z,11.20
2023-05-17T09:11:27.632Z,11.20
2023-05-17T09:13:57.733Z,11.10
2023-05-17T09:16:25.060Z,11.20
2023-05-17T09:18:58.779Z,11.10
2023-05-17T09:21:27.248Z,10.90
2023-05-17T09:24:05.551Z,10.90
2023-05-17T09:26:44.248Z,11.00
2023-05-17T09:29:16.012Z,11.10
2023-05-17T09:31:43.514Z,11.10
2023-05-17T09:34:10.860Z,11.10
2023-05-17T09:36:38.961Z,11.20
2023-05-17T09:39:10.577Z,11.20
2023-05-17T09:41:45.465Z,11.40
2023-05-17T09:44:13.486Z,11.40
2023-05-17T09:46:47.103Z,11.40
2023-05-17T09:49:14.827Z,11.50
2023-05-17T09:51:46.758Z,11.40
2023-05-17T09:54:13.899Z,11.40
2023-05-17T09:56:41.086Z,11.20
2023-05-17T09:59:15.438Z,11.20
2023-05-17T10:01:45.426Z,11.30
2023-05-17T10:04:13.318Z,11.50
2023-05-17T10:09:14.416Z,11.40
2023-05-17T10:11:43.972Z,11.50
2023-05-17T10:14:27.159Z,11.60
2023-05-17T10:16:54.656Z,11.60
2023-05-17T10:19:22.018Z,11.40
2023-05-17T10:21:51.488Z,11.50
2023-05-17T10:24:20.510Z,11.60
2023-05-17T10:26:49.816Z,11.80
2023-05-17T10:29:17.659Z,12.00
2023-05-17T10:31:46.267Z,12.10
2023-05-17T10:34:15.725Z,12.00
2023-05-17T10:36:43.865Z,12.10
2023-05-17T10:39:11.261Z,12.00
2023-05-17T10:41:43.857Z,12.10
2023-05-17T10:44:15.693Z,12.10
2023-05-17T10:47:00.360Z,12.20
2023-05-17T10:49:30.931Z,12.00
2023-05-17T10:51:59.107Z,12.10
2023-05-17T10:54:36.481Z,12.10
2023-05-17T10:57:08.840Z,12.30
2023-05-17T10:59:35.948Z,12.30
2023-05-17T11:02:10.021Z,12.30
2023-05-17T11:04:41.378Z,12.50
2023-05-17T11:07:17.713Z,12.30
2023-05-17T11:09:46.203Z,12.10
2023-05-17T11:12:16.376Z,11.90
2023-05-17T11:14:46.127Z,12.30
2023-05-17T11:17:20.698Z,12.30
2023-05-17T11:19:59.494Z,12.30
2023-05-17T11:22:27.571Z,12.20
2023-05-17T11:24:57.170Z,12.10
2023-05-17T11:27:27.938Z,11.90
2023-05-17T11:29:55.922Z,11.90
2023-05-17T11:32:32.479Z,11.90
2023-05-17T11:35:02.723Z,12.00
2023-05-17T11:37:30.448Z,11.90
2023-05-17T11:40:06.264Z,11.80
2023-05-17T11:42:34.364Z,11.90
2023-05-17T11:45:02.208Z,12.00
2023-05-17T11:47:29.467Z,11.90
2023-05-17T11:50:00.413Z,11.90
2023-05-17T11:52:29.388Z,11.90
2023-05-17T11:54:58.429Z,12.00
2023-05-17T11:57:32.114Z,12.10
2023-05-17T12:00:00.369Z,12.20
2023-05-17T12:02:31.382Z,12.30
2023-05-17T12:04:58.940Z,12.30
2023-05-17T12:07:25.962Z,12.50
2023-05-17T12:09:52.965Z,12.40
2023-05-17T12:12:22.295Z,12.30
2023-05-17T12:14:50.456Z,12.40
2023-05-17T12:17:29.125Z,12.30
2023-05-17T12:19:55.965Z,12.40
2023-05-17T12:22:22.793Z,12.40
2023-05-17T12:24:49.558Z,12.30
2023-05-17T12:27:26.038Z,12.30
2023-05-17T12:29:54.106Z,12.30
2023-05-17T12:32:21.243Z,12.30
2023-05-17T12:34:49.296Z,12.40
2023-05-17T12:37:16.176Z,12.60
2023-05-17T12:39:43.395Z,12.60
2023-05-17T12:42:10.278Z,12.70
2023-05-17T12:44:37.071Z,12.80
2023-05-17T12:47:03.802Z,12.80
2023-05-17T12:49:30.638Z,12.90
2023-05-17T12:52:04.357Z,12.90
2023-05-17T12:54:31.320Z,13.00
2023-05-17T12:56:58.094Z,13.10
2023-05-17T12:59:25.842Z,12.90
2023-05-17T13:01:57.485Z,13.20
2023-05-17T13:04:32.230Z,13.10
2023-05-17T13:07:01.737Z,13.00
2023-05-17T13:09:30.993Z,12.90
2023-05-17T13:12:00.825Z,12.80
2023-05-17T13:14:45.398Z,12.80
2023-05-17T13:17:24.595Z,12.70
2023-05-17T13:19:51.591Z,12.80
2023-05-17T13:22:18.320Z,12.80
2023-05-17T13:24:45.251Z,12.90
2023-05-17T13:27:12.253Z,12.90
2023-05-17T13:29:41.684Z,13.00
2023-05-17T13:32:10.640Z,13.10
2023-05-17T13:34:37.581Z,13.20
2023-05-17T13:37:06.243Z,13.30
2023-05-17T13:39:34.000Z,13.20
2023-05-17T13:42:00.911Z,13.30
2023-05-17T13:44:27.830Z,13.40
2023-05-17T13:46:54.540Z,13.40
2023-05-17T13:49:21.338Z,13.50
2023-05-17T13:51:48.159Z,13.70
2023-05-17T13:54:14.835Z,13.60
2023-05-17T13:56:41.557Z,13.60
2023-05-17T13:59:08.200Z,13.40
2023-05-17T14:01:35.403Z,13.50
2023-05-17T14:04:02.094Z,13.40
2023-05-17T14:06:28.997Z,13.40
2023-05-17T14:08:57.069Z,13.30
2023-05-17T14:11:23.821Z,13.40
2023-05-17T14:13:50.553Z,13.30
2023-05-17T14:16:17.181Z,13.50
2023-05-17T14:18:44.023Z,13.40
2023-05-17T14:21:10.949Z,13.40
2023-05-17T14:23:37.781Z,13.30
2023-05-17T14:26:07.200Z,13.40
2023-05-17T14:28:37.765Z,13.40
2023-05-17T14:31:06.708Z,13.30
2023-05-17T14:33:35.993Z,13.50
2023-05-17T14:36:04.087Z,13.60
2023-05-17T14:38:31.079Z,13.70
2023-05-17T14:41:00.476Z,13.50
2023-05-17T14:43:27.955Z,13.50
2023-05-17T14:45:54.754Z,13.50
2023-05-17T14:48:21.544Z,13.40
2023-05-17T14:50:48.263Z,13.50
2023-05-17T14:53:14.983Z,13.40
2023-05-17T14:55:42.316Z,13.50
2023-05-17T14:58:09.004Z,13.50
2023-05-17T15:00:35.755Z,13.50
2023-05-17T15:03:02.928Z,13.60
2023-05-17T15:05:30.141Z,13.60
2023-05-17T15:07:57.695Z,13.80
2023-05-17T15:10:24.458Z,13.80
2023-05-17T15:12:51.117Z,13.80
2023-05-17T15:15:17.905Z,13.80
2023-05-17T15:17:44.638Z,13.80
2023-05-17T15:20:11.663Z,13.80
2023-05-17T15:22:38.488Z,13.70
2023-05-17T15:25:06.073Z,13.70
2023-05-17T15:27:32.767Z,13.60
2023-05-17T15:29:59.588Z,13.70
2023-05-17T15:32:26.690Z,13.50
2023-05-17T15:34:53.383Z,13.60
2023-05-17T15:37:20.097Z,13.70
2023-05-17T15:39:47.618Z,13.80
2023-05-17T15:42:14.282Z,13.80
2023-05-17T15:44:41.056Z,13.90
2023-05-17T15:47:07.748Z,13.90
2023-05-17T15:49:35.134Z,13.90
2023-05-17T15:52:02.083Z,14.00
2023-05-17T15:54:29.018Z,13.80
2023-05-17T15:56:55.880Z,13.70
2023-05-17T15:59:22.705Z,13.90
2023-05-17T16:01:49.622Z,13.80
2023-05-17T16:04:16.348Z,13.80
2023-05-17T16:06:43.240Z,13.90
2023-05-17T16:09:10.059Z,13.80
2023-05-17T16:11:37.032Z,13.90
2023-05-17T16:14:03.649Z,13.90
2023-05-17T16:16:30.657Z,13.70
2023-05-17T16:18:57.854Z,13.50
2023-05-17T16:21:24.629Z,13.60
2023-05-17T16:23:51.770Z,13.60
2023-05-17T16:26:18.774Z,13.70
2023-05-17T16:28:45.675Z,13.80
2023-05-17T16:31:12.504Z,13.80
2023-05-17T16:33:41.278Z,13.90
2023-05-17T16:36:08.797Z,13.90
2023-05-17T16:38:35.709Z,13.80
2023-05-17T16:41:03.345Z,13.80
2023-05-17T16:43:31.082Z,13.70
2023-05-17T16:48:31.738Z,13.70
2023-05-17T16:50:59.426Z,13.80
2023-05-17T16:53:29.531Z,13.80
2023-05-17T16:55:56.457Z,13.70
2023-05-17T17:01:04.597Z,13.70
2023-05-17T17:03:31.648Z,13.60
2023-05-17T17:05:58.475Z,13.70
2023-05-17T17:08:25.239Z,13.70
2023-05-17T17:10:51.972Z,13.50
2023-05-17T17:13:18.686Z,13.50
2023-05-17T17:15:45.808Z,13.50
2023-05-17T17:18:12.609Z,13.50
2023-05-17T17:20:39.649Z,13.60
2023-05-17T17:23:06.462Z,13.50
2023-05-17T17:25:33.200Z,13.50
2023-05-17T17:27:59.865Z,13.50
2023-05-17T17:30:26.815Z,13.50
2023-05-17T17:32:53.925Z,13.50
2023-05-17T17:35:20.847Z,13.40
2023-05-17T17:37:47.520Z,13.50
2023-05-17T17:40:14.284Z,13.50
2023-05-17T17:42:41.036Z,13.40
2023-05-17T17:45:08.187Z,13.20
2023-05-17T17:47:34.813Z,13.30
2023-05-17T17:50:01.594Z,13.40
2023-05-17T17:52:28.215Z,13.30
2023-05-17T17:54:54.913Z,13.40
2023-05-17T17:57:23.206Z,13.30
2023-05-17T17:59:49.989Z,13.40
2023-05-17T18:02:16.633Z,13.30
2023-05-17T18:04:43.327Z,13.40
2023-05-17T18:07:10.061Z,13.30
2023-05-17T18:09:36.839Z,13.30
2023-05-17T18:12:03.774Z,13.30
2023-05-17T18:14:30.410Z,13.20
2023-05-17T18:16:57.181Z,13.30
2023-05-17T18:19:23.972Z,13.20
2023-05-17T18:21:50.717Z,13.20
2023-05-17T18:24:17.395Z,13.10
2023-05-17T18:26:44.381Z,13.10
2023-05-17T18:29:10.972Z,13.20
2023-05-17T18:31:37.647Z,13.00
2023-05-17T18:34:04.316Z,13.00
2023-05-17T18:36:30.927Z,13.00
2023-05-17T18:39:00.985Z,13.00
2023-05-17T18:41:27.661Z,13.00
2023-05-17T18:43:54.330Z,13.10
2023-05-17T18:46:21.320Z,13.10
2023-05-17T18:48:47.932Z,13.00
2023-05-17T18:51:15.776Z,13.10
2023-05-17T18:53:42.536Z,12.90
2023-05-17T18:56:09.204Z,12.80
2023-05-17T18:58:35.911Z,12.90
2023-05-17T19:01:02.733Z,12.90
2023-05-17T19:03:29.838Z,12.90
2023-05-17T19:05:56.582Z,13.00
2023-05-17T19:08:23.373Z,13.00
2023-05-17T19:10:50.209Z,13.00
2023-05-17T19:13:16.840Z,13.00
2023-05-17T19:15:43.522Z,12.90
2023-05-17T19:18:10.357Z,12.80
2023-05-17T19:20:37.355Z,12.80
2023-05-17T19:23:04.291Z,12.80
2023-05-17T19:25:30.932Z,12.80
2023-05-17T19:27:57.659Z,12.80
2023-05-17T19:30:24.408Z,12.90
2023-05-17T19:32:51.170Z,12.80
2023-05-17T19:35:17.870Z,12.90
2023-05-17T19:37:44.497Z,13.00
2023-05-17T19:40:11.846Z,12.90
2023-05-17T19:42:39.575Z,13.00
2023-05-17T19:45:09.371Z,13.00
2023-05-17T19:47:36.177Z,13.00
2023-05-17T19:50:02.981Z,13.00
2023-05-17T19:52:32.659Z,13.10
2023-05-17T19:54:59.436Z,13.10
2023-05-17T19:57:26.124Z,13.00
2023-05-17T19:59:53.025Z,13.00
2023-05-17T20:02:19.888Z,13.00
2023-05-17T20:04:47.769Z,12.90
2023-05-17T20:07:15.285Z,13.00
2023-05-17T20:09:41.922Z,13.00
2023-05-17T20:12:09.091Z,13.00
2023-05-17T20:14:36.220Z,13.00
2023-05-17T20:17:03.052Z,13.00
2023-05-17T20:19:32.721Z,13.00
2023-05-17T20:21:59.692Z,12.90
2023-05-17T20:24:28.866Z,13.00
2023-05-17T20:26:57.186Z,12.90
2023-05-17T20:29:23.824Z,13.00
2023-05-17T20:31:50.934Z,12.90
2023-05-17T20:34:17.661Z,13.00
2023-05-17T20:36:44.426Z,12.90
2023-05-17T20:39:11.138Z,12.90
2023-05-17T20:41:37.818Z,12.90
2023-05-17T20:44:04.672Z,12.90
2023-05-17T20:46:31.844Z,12.80
2023-05-17T20:48:58.599Z,12.80
2023-05-17T20:51:26.970Z,12.80
2023-05-17T20:53:53.998Z,12.80
2023-05-17T20:56:20.620Z,12.80
2023-05-17T20:58:48.275Z,12.70
2023-05-17T21:01:15.033Z,12.80
2023-05-17T21:03:43.374Z,12.70
2023-05-17T21:06:10.430Z,12.70
2023-05-17T21:08:37.319Z,12.70
2023-05-17T21:11:04.019Z,12.70
2023-05-17T21:13:31.031Z,12.70
2023-05-17T21:15:57.773Z,12.70
2023-05-17T21:18:24.435Z,12.70
2023-05-17T21:20:51.724Z,12.70
2023-05-17T21:23:18.797Z,12.70
2023-05-17T21:25:45.477Z,12.70
2023-05-17T21:28:12.224Z,12.70
2023-05-17T21:30:38.906Z,12.70
2023-05-17T21:33:05.839Z,12.70
2023-05-17T21:35:32.837Z,12.70
2023-05-17T21:38:00.221Z,12.70
2023-05-17T21:40:27.418Z,12.60
2023-05-17T21:42:54.567Z,12.60
2023-05-17T21:45:23.274Z,12.60
2023-05-17T21:47:51.045Z,12.60
2023-05-17T21:50:18.050Z,12.60
2023-05-17T21:52:45.653Z,12.50
2023-05-17T21:55:12.363Z,12.50
2023-05-17T21:57:38.978Z,12.50
2023-05-17T22:00:07.835Z,12.40
2023-05-17T22:02:35.835Z,12.40
2023-05-17T22:05:02.684Z,12.30
2023-05-17T22:07:29.405Z,12.20
2023-05-17T22:09:56.072Z,12.20
2023-05-17T22:12:25.319Z,12.10
2023-05-17T22:14:54.153Z,12.10
2023-05-17T22:17:29.619Z,12.00
2023-05-17T22:20:07.330Z,12.00
2023-05-17T22:22:34.060Z,12.10
2023-05-17T22:25:00.728Z,12.00
2023-05-17T22:27:27.391Z,12.20
2023-05-17T22:29:54.078Z,12.00
2023-05-17T22:32:20.842Z,11.90
2023-05-17T22:34:49.012Z,11.80
2023-05-17T22:37:17.467Z,11.90
2023-05-17T22:39:44.061Z,11.90
2023-05-17T22:42:10.858Z,11.90
2023-05-17T22:44:37.562Z,11.80
2023-05-17T22:47:04.773Z,11.70
2023-05-17T22:49:35.683Z,11.70
2023-05-17T22:52:07.515Z,11.70
2023-05-17T22:54:36.192Z,11.70
2023-05-17T22:57:04.164Z,11.80
2023-05-17T22:59:32.687Z,11.80
2023-05-17T23:01:59.594Z,11.60
2023-05-17T23:04:26.507Z,11.60
2023-05-17T23:06:54.180Z,11.40
2023-05-17T23:09:23.680Z,11.40
2023-05-17T23:11:50.350Z,11.20
2023-05-17T23:14:17.655Z,11.30
2023-05-17T23:16:44.425Z,11.20
2023-05-17T23:19:11.171Z,11.20
2023-05-17T23:21:39.519Z,11.10
2023-05-17T23:24:07.965Z,11.10
2023-05-17T23:26:35.039Z,11.20
2023-05-17T23:29:03.466Z,11.20
2023-05-17T23:31:30.455Z,11.20
2023-05-17T23:33:57.161Z,11.20
2023-05-17T23:36:23.817Z,11.10
2023-05-17T23:38:50.542Z,11.10
2023-05-17T23:41:19.523Z,11.00
2023-05-17T23:43:46.727Z,11.10
2023-05-17T23:46:19.440Z,11.10
2023-05-17T23:48:52.566Z,11.10
2023-05-17T23:51:20.286Z,11.10
2023-05-17T23:53:48.780Z,11.10
2023-05-17T23:56:17.403Z,11.00
2023-05-17T23:58:45.291Z,10.90
